Time;durP1;ratioP1;P1;durP2;ratioP2;P2;SDS_P1;SDS_P2;PMS_P1;PMS_P2;Temp;Humidity;BMP_temperature;BMP_pressure;BME280_temperature;BME280_humidity;BME280_pressure;Samples;Min_cycle;Max_cycle;Signal;HPM_P1;HPM_P2
2023/05/03 00:00:45;;;;;;;6.80;3.20;;;4.50;99.90;;;;;;5078847;28;20687;-79
2023/05/03 00:03:12;;;;;;;5.93;3.13;;;4.70;99.90;;;;;;5076455;28;20202;-79
2023/05/03 00:05:39;;;;;;;6.30;3.47;;;4.80;99.90;;;;;;5078835;28;20248;-78
2023/05/03 00:08:06;;;;;;;6.00;3.47;;;4.70;99.90;;;;;;5079715;28;20208;-79
2023/05/03 00:10:32;;;;;;;4.87;3.20;;;4.80;99.90;;;;;;5078243;28;20202;-79
2023/05/03 00:12:59;;;;;;;4.63;2.93;;;4.70;99.90;;;;;;5077988;28;20700;-79
2023/05/03 00:15:27;;;;;;;3.93;3.10;;;4.70;99.90;;;;;;5078486;28;20202;-79
2023/05/03 00:17:54;;;;;;;5.30;2.90;;;4.60;99.90;;;;;;5077490;28;20293;-80
2023/05/03 00:20:21;;;;;;;5.70;3.43;;;4.50;99.90;;;;;;5077414;28;20248;-79
2023/05/03 00:22:48;;;;;;;4.70;3.10;;;4.40;99.90;;;;;;5093002;28;20680;-79
2023/05/03 00:25:15;;;;;;;5.17;3.03;;;4.30;99.90;;;;;;5091705;28;20202;-79
2023/05/03 00:27:42;;;;;;;5.77;3.57;;;4.30;99.90;;;;;;5087967;28;20695;-79
2023/05/03 00:30:09;;;;;;;5.70;3.43;;;4.20;99.90;;;;;;5092040;28;20201;-79
2023/05/03 00:32:38;;;;;;;5.73;3.40;;;4.20;99.90;;;;;;5087273;28;20249;-79
2023/05/03 00:35:05;;;;;;;5.10;3.07;;;4.40;99.90;;;;;;5089753;28;20682;-78
2023/05/03 00:37:32;;;;;;;5.83;3.30;;;4.50;99.90;;;;;;5098267;28;20232;-79
2023/05/03 00:39:59;;;;;;;5.10;3.07;;;4.50;99.90;;;;;;5078055;28;20233;-79
2023/05/03 00:42:26;;;;;;;7.97;3.70;;;4.40;99.90;;;;;;5078575;28;20814;-79
2023/05/03 00:44:52;;;;;;;5.23;3.10;;;4.40;99.90;;;;;;5078296;28;20281;-79
2023/05/03 00:47:22;;;;;;;4.53;2.90;;;4.40;99.90;;;;;;5083131;28;20193;-79
2023/05/03 00:49:51;;;;;;;6.37;3.80;;;4.20;99.90;;;;;;5093482;28;20206;-80
2023/05/03 00:52:18;;;;;;;5.83;3.33;;;4.50;99.90;;;;;;5078231;28;20240;-79
2023/05/03 00:54:45;;;;;;;4.53;3.30;;;4.40;99.90;;;;;;5091475;28;20567;-79
2023/05/03 00:57:12;;;;;;;7.23;3.33;;;4.40;99.90;;;;;;5077862;28;20690;-79
2023/05/03 00:59:39;;;;;;;7.20;3.17;;;4.50;99.90;;;;;;5091686;28;20208;-79
2023/05/03 01:02:06;;;;;;;5.47;2.93;;;4.40;99.90;;;;;;5091745;28;20304;-79
2023/05/03 01:04:32;;;;;;;4.57;3.23;;;4.30;99.90;;;;;;5093299;28;20193;-80
2023/05/03 01:07:09;;;;;;;6.17;3.03;;;4.20;99.90;;;;;;5094822;28;20210;-80
2023/05/03 01:09:43;;;;;;;4.53;3.67;;;4.10;99.90;;;;;;5081655;28;20538;-80
2023/05/03 01:12:20;;;;;;;8.07;3.47;;;4.00;99.90;;;;;;5079908;28;20248;-79
2023/05/03 01:14:58;;;;;;;7.73;3.33;;;3.70;99.90;;;;;;5077422;28;20656;-80
2023/05/03 01:17:29;;;;;;;5.53;3.10;;;3.80;99.90;;;;;;5076993;28;20297;-80
2023/05/03 01:20:00;;;;;;;5.53;3.30;;;3.90;99.90;;;;;;5075903;28;20581;-79
2023/05/03 01:22:37;;;;;;;4.97;3.20;;;3.80;99.90;;;;;;5086664;28;20324;-79
2023/05/03 01:25:09;;;;;;;4.87;3.47;;;3.60;99.90;;;;;;5092743;28;20606;-79
2023/05/03 01:27:36;;;;;;;6.90;3.17;;;3.50;99.90;;;;;;5076714;28;20208;-79
2023/05/03 01:30:05;;;;;;;6.73;3.57;;;3.60;99.90;;;;;;5093049;28;20208;-79
2023/05/03 01:32:40;;;;;;;5.70;3.27;;;3.60;99.90;;;;;;5089477;28;20217;-79
2023/05/03 01:35:15;;;;;;;8.07;3.47;;;3.70;99.90;;;;;;5091213;28;20197;-79
2023/05/03 01:37:43;;;;;;;6.17;3.20;;;3.80;99.90;;;;;;5094288;28;20591;-79
2023/05/03 01:40:15;;;;;;;3.93;3.20;;;3.70;99.90;;;;;;5085205;28;20198;-79
2023/05/03 01:42:43;;;;;;;4.90;3.40;;;3.70;99.90;;;;;;5083580;28;20221;-79
2023/05/03 01:45:11;;;;;;;7.07;4.23;;;3.80;99.90;;;;;;5093742;28;20204;-79
2023/05/03 01:47:38;;;;;;;6.73;3.90;;;3.80;99.90;;;;;;5085124;28;20233;-79
2023/05/03 01:50:05;;;;;;;5.80;3.53;;;3.70;99.90;;;;;;5081678;28;20662;-80
2023/05/03 01:52:32;;;;;;;4.73;3.50;;;3.60;99.90;;;;;;5090151;28;20236;-79
2023/05/03 01:54:59;;;;;;;5.97;3.60;;;3.50;99.90;;;;;;5079538;28;20449;-79
2023/05/03 01:57:27;;;;;;;7.27;3.40;;;3.40;99.90;;;;;;5078356;28;20582;-79
2023/05/03 01:59:54;;;;;;;7.23;3.70;;;3.50;99.90;;;;;;5091132;28;20209;-79
2023/05/03 02:02:21;;;;;;;5.87;3.80;;;3.40;99.90;;;;;;5079385;28;20316;-79
2023/05/03 02:04:48;;;;;;;6.00;3.70;;;3.50;99.90;;;;;;5082131;28;20197;-79
2023/05/03 02:07:14;;;;;;;5.83;3.60;;;3.40;99.90;;;;;;5089246;28;20194;-79
2023/05/03 02:09:41;;;;;;;4.50;3.40;;;3.40;99.90;;;;;;5078728;28;20289;-80
2023/05/03 02:12:08;;;;;;;6.50;3.53;;;3.40;99.90;;;;;;5097948;28;20217;-79
2023/05/03 02:14:36;;;;;;;7.33;3.83;;;3.50;99.90;;;;;;5094124;28;20275;-80
2023/05/03 02:17:03;;;;;;;4.50;3.60;;;3.60;99.90;;;;;;5082037;28;20270;-79
2023/05/03 02:19:30;;;;;;;4.97;3.80;;;3.60;99.90;;;;;;5077015;28;20289;-80
2023/05/03 02:21:57;;;;;;;5.37;4.00;;;3.70;99.90;;;;;;5095024;28;20316;-80
2023/05/03 02:24:24;;;;;;;5.57;3.73;;;3.80;99.90;;;;;;5095963;28;20229;-79
2023/05/03 02:26:50;;;;;;;6.17;3.93;;;3.80;99.90;;;;;;5097216;28;20206;-79
2023/05/03 02:29:17;;;;;;;5.73;3.60;;;3.80;99.90;;;;;;5090084;28;20245;-78
2023/05/03 02:31:45;;;;;;;8.60;4.03;;;3.60;99.90;;;;;;5091223;28;20323;-79
2023/05/03 02:34:12;;;;;;;4.63;3.77;;;3.50;99.90;;;;;;5098041;28;20593;-79
2023/05/03 02:36:39;;;;;;;7.73;5.00;;;3.50;99.90;;;;;;5077821;28;20499;-79
2023/05/03 02:39:06;;;;;;;8.27;4.77;;;3.50;99.90;;;;;;5086463;28;20213;-80
2023/05/03 02:41:33;;;;;;;7.43;4.53;;;3.50;99.90;;;;;;5099822;28;20241;-80
2023/05/03 02:43:59;;;;;;;5.70;3.50;;;3.50;99.90;;;;;;5097533;28;20210;-80
2023/05/03 02:46:26;;;;;;;5.63;3.63;;;3.50;99.90;;;;;;5082086;28;20206;-80
2023/05/03 02:48:54;;;;;;;5.60;3.17;;;3.50;99.90;;;;;;5101656;28;20623;-80
2023/05/03 02:51:21;;;;;;;4.87;3.20;;;3.50;99.90;;;;;;5106709;28;20222;-79
2023/05/03 02:53:48;;;;;;;6.30;3.47;;;3.40;99.90;;;;;;5088520;28;20215;-81
2023/05/03 02:56:15;;;;;;;7.17;3.77;;;3.30;99.90;;;;;;5102063;28;20197;-81
2023/05/03 02:58:42;;;;;;;6.17;3.33;;;3.30;99.90;;;;;;5097578;28;20221;-80
2023/05/03 03:01:09;;;;;;;5.30;3.37;;;3.40;99.90;;;;;;5103241;28;20228;-80
2023/05/03 03:03:35;;;;;;;5.67;3.60;;;3.40;99.90;;;;;;5123829;28;20203;-80
2023/05/03 03:06:05;;;;;;;6.30;3.27;;;3.40;99.90;;;;;;5107793;28;20205;-80
2023/05/03 03:08:32;;;;;;;6.37;3.50;;;3.30;99.90;;;;;;5087766;28;20203;-81
2023/05/03 03:10:59;;;;;;;4.43;3.20;;;3.30;99.90;;;;;;5088713;28;20644;-80
2023/05/03 03:13:25;;;;;;;11.07;4.20;;;3.30;99.90;;;;;;5088418;28;20418;-80
2023/05/03 03:15:52;;;;;;;9.33;3.40;;;3.30;99.90;;;;;;5089705;28;20194;-80
2023/05/03 03:18:19;;;;;;;6.30;3.87;;;3.20;99.90;;;;;;5088397;28;20237;-80
2023/05/03 03:20:46;;;;;;;5.20;3.33;;;3.20;99.90;;;;;;5081741;28;20206;-80
2023/05/03 03:23:18;;;;;;;5.57;4.07;;;3.00;99.90;;;;;;5095162;28;20220;-82
2023/05/03 03:25:45;;;;;;;4.50;3.80;;;3.10;99.90;;;;;;5102263;28;20200;-81
2023/05/03 03:28:12;;;;;;;6.27;3.93;;;3.10;99.90;;;;;;5095467;28;20250;-81
2023/05/03 03:30:39;;;;;;;7.50;4.00;;;3.00;99.90;;;;;;5117744;28;20384;-81
2023/05/03 03:33:06;;;;;;;7.70;6.73;;;3.00;99.90;;;;;;5100208;28;20350;-81
2023/05/03 03:35:33;;;;;;;6.10;4.07;;;3.00;99.90;;;;;;5100348;28;20205;-80
2023/05/03 03:38:00;;;;;;;8.50;4.30;;;2.90;99.90;;;;;;5090192;28;20655;-81
2023/05/03 03:41:14;;;;;;;6.83;4.30;;;2.90;99.90;;;;;;5081226;28;20212;-80
2023/05/03 03:43:43;;;;;;;6.17;4.10;;;3.00;99.90;;;;;;5080162;28;20214;-80
2023/05/03 03:46:10;;;;;;;5.27;3.47;;;3.00;99.90;;;;;;5081186;28;20247;-81
2023/05/03 03:48:36;;;;;;;7.70;3.77;;;3.00;99.90;;;;;;5081447;28;20226;-80
2023/05/03 03:51:04;;;;;;;5.97;4.00;;;3.10;99.90;;;;;;5079232;28;20223;-80
2023/05/03 03:53:30;;;;;;;6.63;3.90;;;3.10;99.90;;;;;;5078440;28;20202;-80
2023/05/03 03:55:57;;;;;;;4.90;4.00;;;3.10;99.90;;;;;;5080552;28;20232;-80
2023/05/03 03:58:24;;;;;;;8.07;4.10;;;3.10;99.90;;;;;;5080727;28;20225;-80
2023/05/03 04:00:52;;;;;;;6.03;4.10;;;3.10;99.90;;;;;;5079622;28;20218;-79
2023/05/03 04:03:19;;;;;;;6.97;3.40;;;3.20;99.90;;;;;;5081200;28;20226;-79
2023/05/03 04:05:47;;;;;;;8.47;4.00;;;3.50;99.90;;;;;;5080888;28;20715;-79
2023/05/03 04:08:13;;;;;;;7.00;3.93;;;3.70;99.90;;;;;;5081091;28;20617;-80
2023/05/03 04:10:40;;;;;;;4.93;3.67;;;4.10;99.90;;;;;;5080036;28;20207;-79
2023/05/03 04:13:07;;;;;;;5.63;3.40;;;4.30;99.90;;;;;;5080139;28;20206;-80
2023/05/03 04:15:34;;;;;;;7.50;3.23;;;4.80;99.90;;;;;;5079835;28;20209;-80
2023/05/03 04:18:03;;;;;;;6.30;3.57;;;4.80;99.90;;;;;;5080244;28;20272;-79
2023/05/03 04:20:29;;;;;;;5.23;3.30;;;5.00;99.90;;;;;;5080253;28;20194;-79
2023/05/03 04:22:56;;;;;;;7.40;3.87;;;4.90;99.90;;;;;;5080163;28;20654;-79
2023/05/03 04:25:24;;;;;;;5.30;3.40;;;5.30;99.90;;;;;;5081435;28;20198;-79
2023/05/03 04:27:52;;;;;;;4.27;2.60;;;4.90;99.90;;;;;;5080932;28;20448;-80
2023/05/03 04:30:19;;;;;;;5.33;3.63;;;4.70;99.90;;;;;;5080489;28;20256;-80
2023/05/03 04:32:46;;;;;;;4.20;3.07;;;5.40;99.90;;;;;;5079804;28;20222;-79
2023/05/03 04:35:14;;;;;;;3.83;2.90;;;5.90;99.90;;;;;;5080070;28;20259;-80
2023/05/03 04:37:42;;;;;;;5.13;3.03;;;5.50;99.90;;;;;;5080875;28;20206;-80
2023/05/03 04:40:11;;;;;;;3.00;2.47;;;5.70;99.90;;;;;;5080203;28;20686;-80
2023/05/03 04:42:38;;;;;;;6.97;3.17;;;6.20;99.90;;;;;;5080265;28;20299;-79
2023/05/03 04:45:08;;;;;;;5.60;3.23;;;6.50;99.90;;;;;;5079448;28;20233;-79
2023/05/03 04:47:35;;;;;;;6.80;3.00;;;6.40;99.90;;;;;;5078785;28;20206;-79
2023/05/03 04:50:02;;;;;;;6.97;2.80;;;6.20;99.90;;;;;;5078745;28;20202;-79
2023/05/03 04:52:30;;;;;;;5.10;3.30;;;6.20;99.90;;;;;;5079309;28;20214;-80
2023/05/03 04:54:57;;;;;;;6.17;2.47;;;6.30;99.90;;;;;;5079781;28;20210;-78
2023/05/03 04:57:24;;;;;;;5.43;2.87;;;6.60;99.90;;;;;;5079632;28;20202;-79
2023/05/03 04:59:52;;;;;;;6.00;2.90;;;6.80;99.90;;;;;;5078348;28;20477;-80
2023/05/03 05:02:19;;;;;;;6.40;2.83;;;6.60;99.90;;;;;;5079746;28;20692;-79
2023/05/03 05:04:46;;;;;;;4.57;3.07;;;6.60;99.90;;;;;;5078448;28;20241;-80
2023/05/03 05:07:13;;;;;;;4.53;2.70;;;7.60;99.90;;;;;;5079460;28;20232;-79
2023/05/03 05:09:42;;;;;;;3.00;2.63;;;7.50;99.90;;;;;;5078502;28;20203;-81
2023/05/03 05:12:09;;;;;;;6.63;2.93;;;7.00;99.90;;;;;;5078930;28;20358;-80
2023/05/03 05:14:36;;;;;;;6.90;2.70;;;7.90;99.90;;;;;;5079435;28;20634;-81
2023/05/03 05:17:03;;;;;;;4.03;2.90;;;8.40;99.90;;;;;;5080187;28;20263;-80
2023/05/03 05:19:33;;;;;;;4.47;2.90;;;8.60;99.90;;;;;;5078024;28;20198;-80
2023/05/03 05:22:00;;;;;;;5.80;3.13;;;8.50;99.90;;;;;;5099470;28;20248;-81
2023/05/03 05:24:27;;;;;;;5.10;2.80;;;8.00;99.90;;;;;;5097838;28;20870;-80
2023/05/03 05:26:55;;;;;;;3.47;3.03;;;8.20;99.90;;;;;;5081375;28;20226;-81
2023/05/03 05:29:22;;;;;;;6.53;3.00;;;8.10;99.90;;;;;;5089646;28;20717;-81
2023/05/03 05:31:49;;;;;;;5.63;2.90;;;8.90;99.90;;;;;;5100160;28;20221;-81
2023/05/03 05:34:16;;;;;;;6.93;3.20;;;9.30;99.90;;;;;;5102731;28;20567;-81
2023/05/03 05:36:43;;;;;;;6.60;3.07;;;8.30;99.90;;;;;;5099607;28;20263;-80
2023/05/03 05:39:10;;;;;;;4.53;3.30;;;8.50;99.90;;;;;;5100813;28;20201;-80
2023/05/03 05:41:38;;;;;;;5.47;3.20;;;9.00;99.90;;;;;;5101146;28;20260;-80
2023/05/03 05:44:06;;;;;;;5.97;3.30;;;7.90;99.90;;;;;;5100863;28;20205;-80
2023/05/03 05:46:33;;;;;;;6.40;3.23;;;7.70;99.90;;;;;;5101173;28;20254;-80
2023/05/03 05:49:00;;;;;;;8.43;3.63;;;7.40;99.90;;;;;;5101431;28;20232;-79
2023/05/03 05:51:29;;;;;;;8.00;3.70;;;7.20;99.90;;;;;;5100629;28;20222;-79
2023/05/03 05:53:56;;;;;;;8.67;3.60;;;7.10;99.90;;;;;;5100539;28;20200;-79
2023/05/03 05:56:23;;;;;;;7.80;3.90;;;7.00;99.90;;;;;;5099628;28;20201;-81
2023/05/03 05:58:50;;;;;;;7.10;3.47;;;6.80;99.90;;;;;;5099009;28;20227;-78
2023/05/03 06:01:18;;;;;;;6.07;3.50;;;8.00;99.90;;;;;;5098741;28;20232;-79
2023/05/03 06:03:45;;;;;;;6.93;3.70;;;7.50;99.90;;;;;;5098265;28;20268;-78
2023/05/03 06:06:12;;;;;;;6.80;3.70;;;7.10;99.90;;;;;;5098262;28;20201;-79
2023/05/03 06:08:39;;;;;;;7.83;3.47;;;7.00;99.90;;;;;;5097664;28;20269;-79
2023/05/03 06:11:06;;;;;;;7.10;3.90;;;7.70;99.90;;;;;;5097709;28;20266;-79
2023/05/03 06:13:37;;;;;;;5.03;3.40;;;8.30;99.90;;;;;;5099885;28;20204;-78
2023/05/03 06:16:04;;;;;;;7.93;4.10;;;8.80;99.90;;;;;;5098460;28;20201;-79
2023/05/03 06:18:32;;;;;;;7.73;3.47;;;9.70;99.90;;;;;;5098993;28;20228;-79
2023/05/03 06:20:59;;;;;;;7.37;3.97;;;10.10;99.90;;;;;;5099137;28;20251;-79
2023/05/03 06:23:26;;;;;;;7.67;4.00;;;8.80;99.90;;;;;;5099079;28;20554;-79
2023/05/03 06:25:54;;;;;;;7.13;3.90;;;8.00;99.90;;;;;;5099299;28;20201;-79
2023/05/03 06:28:21;;;;;;;5.43;3.60;;;8.00;99.90;;;;;;5098528;28;20198;-79
2023/05/03 06:30:51;;;;;;;10.73;4.33;;;8.10;99.90;;;;;;5097355;28;20202;-79
2023/05/03 06:33:18;;;;;;;8.37;3.83;;;8.30;99.90;;;;;;5098183;28;20705;-79
2023/05/03 06:35:47;;;;;;;8.77;4.00;;;7.80;99.90;;;;;;5097911;28;20205;-79
2023/05/03 06:38:14;;;;;;;8.63;4.00;;;7.90;99.90;;;;;;5098454;28;20671;-79
2023/05/03 06:40:41;;;;;;;7.33;3.90;;;8.30;99.90;;;;;;5097940;28;20197;-79
2023/05/03 06:43:08;;;;;;;6.43;3.70;;;9.70;99.90;;;;;;5098605;28;20223;-80
2023/05/03 06:45:35;;;;;;;8.17;3.80;;;10.60;99.90;;;;;;5097023;28;20227;-80
2023/05/03 06:48:02;;;;;;;6.30;3.73;;;9.90;99.90;;;;;;5095982;28;20229;-79
2023/05/03 06:50:32;;;;;;;4.17;3.37;;;9.30;99.90;;;;;;5096722;28;20282;-79
2023/05/03 06:53:00;;;;;;;8.03;3.80;;;9.20;99.90;;;;;;5097561;28;20221;-79
2023/05/03 06:55:27;;;;;;;9.10;3.50;;;9.00;99.90;;;;;;5098766;28;20209;-79
2023/05/03 06:57:54;;;;;;;5.73;3.50;;;9.40;99.90;;;;;;5097231;28;20213;-79
2023/05/03 07:00:22;;;;;;;6.77;4.10;;;9.40;99.90;;;;;;5096638;28;20209;-79
2023/05/03 07:02:48;;;;;;;9.37;3.93;;;9.70;99.90;;;;;;5096384;28;20240;-79
2023/05/03 07:05:16;;;;;;;6.47;4.07;;;9.90;99.90;;;;;;5093623;28;20240;-79
2023/05/03 07:07:42;;;;;;;10.17;3.90;;;9.50;99.90;;;;;;5090036;28;20239;-79
2023/05/03 07:10:11;;;;;;;8.40;3.83;;;9.90;99.90;;;;;;5095794;28;20200;-78
2023/05/03 07:12:38;;;;;;;8.10;3.60;;;10.10;99.90;;;;;;5088421;28;20206;-79
2023/05/03 07:15:05;;;;;;;7.23;3.50;;;9.80;99.90;;;;;;5080845;28;20198;-79
2023/05/03 07:17:32;;;;;;;6.47;3.67;;;9.50;99.90;;;;;;5084517;28;20442;-79
2023/05/03 07:19:58;;;;;;;7.83;3.83;;;9.40;99.90;;;;;;5082127;28;20204;-79
2023/05/03 07:22:26;;;;;;;7.00;3.73;;;9.50;99.90;;;;;;5095697;28;20598;-78
2023/05/03 07:24:53;;;;;;;8.37;3.33;;;9.50;99.90;;;;;;5096335;28;20212;-79
2023/05/03 07:27:21;;;;;;;7.30;3.60;;;9.50;99.90;;;;;;5086429;28;20735;-78
2023/05/03 07:29:48;;;;;;;5.43;3.00;;;9.60;99.90;;;;;;5078223;28;20205;-79
2023/05/03 07:32:15;;;;;;;7.50;3.30;;;9.30;99.90;;;;;;5078507;28;20229;-79
2023/05/03 07:34:42;;;;;;;4.13;2.47;;;9.50;99.90;;;;;;5079500;28;20232;-78
2023/05/03 07:37:09;;;;;;;3.37;1.90;;;9.30;99.90;;;;;;5079182;28;20632;-78
2023/05/03 07:39:35;;;;;;;4.90;1.80;;;9.20;99.90;;;;;;5078505;28;20230;-80
2023/05/03 07:42:02;;;;;;;2.70;2.10;;;9.20;1.00;;;;;;5091526;28;20761;-78
2023/05/03 07:44:30;;;;;;;6.17;1.70;;;9.30;94.70;;;;;;5099904;28;20244;-77
2023/05/03 07:46:57;;;;;;;5.80;2.30;;;9.30;99.90;;;;;;5095366;28;20198;-77
2023/05/03 07:49:24;;;;;;;2.90;2.23;;;9.30;99.90;;;;;;5092880;28;20215;-77
2023/05/03 07:51:51;;;;;;;2.80;2.23;;;9.20;99.90;;;;;;5078007;28;20230;-78
2023/05/03 07:54:18;;;;;;;3.47;2.30;;;9.30;1.00;;;;;;5078668;28;20198;-78
2023/05/03 07:56:45;;;;;;;3.83;1.83;;;9.30;1.00;;;;;;5078422;28;20215;-77
2023/05/03 07:59:12;;;;;;;7.23;1.97;;;9.20;1.00;;;;;;5077502;28;20207;-78
2023/05/03 08:01:40;;;;;;;2.47;1.90;;;9.10;1.00;;;;;;5094869;28;20236;-79
2023/05/03 08:04:07;;;;;;;3.87;1.97;;;9.30;1.00;;;;;;5099293;28;20230;-78
2023/05/03 08:06:34;;;;;;;4.10;2.73;;;9.50;99.90;;;;;;5097235;28;20239;-78
2023/05/03 08:09:01;;;;;;;5.43;2.07;;;9.70;1.00;;;;;;5095425;28;20197;-78
2023/05/03 08:11:29;;;;;;;2.93;2.07;;;9.70;1.00;;;;;;5080297;28;20220;-77
2023/05/03 08:13:57;;;;;;;6.47;2.03;;;10.00;1.00;;;;;;5086441;28;20764;-78
2023/05/03 08:16:24;;;;;;;3.03;2.13;;;9.90;99.90;;;;;;5092015;28;20680;-77
2023/05/03 08:18:52;;;;;;;5.63;2.00;;;9.90;1.00;;;;;;5079861;28;20194;-77
2023/05/03 08:21:20;;;;;;;1.83;1.73;;;10.20;1.00;;;;;;5083707;28;20283;-77
2023/05/03 08:23:47;;;;;;;3.50;2.00;;;10.10;1.00;;;;;;5092683;28;20267;-77
2023/05/03 08:26:14;;;;;;;3.47;1.70;;;10.20;1.00;;;;;;5096814;28;20197;-78
2023/05/03 08:28:41;;;;;;;3.63;2.20;;;9.90;99.90;;;;;;5092296;28;20646;-78
2023/05/03 08:31:08;;;;;;;2.77;2.00;;;10.10;80.50;;;;;;5091443;28;20209;-78
2023/05/03 08:33:34;;;;;;;4.03;2.10;;;10.20;99.90;;;;;;5094471;28;20204;-77
2023/05/03 08:36:03;;;;;;;3.83;2.07;;;10.00;99.90;;;;;;5076142;28;20301;-77
2023/05/03 08:38:30;;;;;;;5.97;2.37;;;10.10;1.00;;;;;;5090688;28;20709;-77
2023/05/03 08:40:59;;;;;;;6.50;2.83;;;9.80;99.90;;;;;;5095849;28;20225;-77
2023/05/03 08:43:31;;;;;;;4.13;2.00;;;10.00;1.00;;;;;;5096301;28;20249;-76
2023/05/03 08:45:57;;;;;;;3.13;1.93;;;10.20;1.00;;;;;;5097215;28;20206;-77
2023/05/03 08:48:24;;;;;;;3.30;2.27;;;10.50;1.00;;;;;;5097575;28;20209;-76
2023/05/03 08:50:52;;;;;;;5.77;2.03;;;11.10;1.00;;;;;;5096702;28;20208;-77
2023/05/03 08:53:21;;;;;;;5.70;2.20;;;11.20;1.00;;;;;;5097412;28;20201;-78
2023/05/03 08:55:48;;;;;;;3.90;2.33;;;10.90;1.00;;;;;;5095383;28;20198;-77
2023/05/03 08:58:15;;;;;;;4.97;2.33;;;11.00;1.00;;;;;;5096651;28;20202;-77
2023/05/03 09:00:43;;;;;;;4.20;2.03;;;10.90;1.00;;;;;;5107592;28;20219;-78
2023/05/03 09:03:10;;;;;;;2.93;2.20;;;10.80;1.00;;;;;;5117059;28;20244;-78
2023/05/03 09:05:40;;;;;;;3.07;2.23;;;10.70;99.90;;;;;;5092645;28;20206;-77
2023/05/03 09:08:08;;;;;;;3.53;2.33;;;10.60;99.90;;;;;;5075716;28;20245;-78
2023/05/03 09:10:40;;;;;;;3.90;2.10;;;10.50;1.00;;;;;;5074606;28;20274;-78
2023/05/03 09:13:07;;;;;;;2.73;1.80;;;10.20;99.90;;;;;;5075956;28;20197;-78
2023/05/03 09:15:34;;;;;;;4.17;2.37;;;11.00;1.00;;;;;;5111011;28;20201;-78
2023/05/03 09:18:14;;;;;;;4.20;2.40;;;11.70;99.90;;;;;;5101495;28;20193;-77
2023/05/03 09:20:44;;;;;;;3.83;2.23;;;11.60;1.00;;;;;;5095886;28;20684;-78
2023/05/03 09:23:11;;;;;;;2.13;1.73;;;11.80;1.00;;;;;;5082778;28;20297;-78
2023/05/03 09:25:47;;;;;;;3.83;2.17;;;12.10;1.00;;;;;;5077301;28;20619;-78
2023/05/03 09:28:15;;;;;;;5.43;2.23;;;12.80;1.00;;;;;;5075693;28;20305;-78
2023/05/03 09:30:42;;;;;;;5.40;2.10;;;13.50;1.00;;;;;;5073796;28;20198;-77
2023/05/03 09:33:10;;;;;;;3.60;2.30;;;12.70;1.00;;;;;;5090233;28;20205;-77
2023/05/03 09:35:37;;;;;;;4.10;2.40;;;12.00;1.00;;;;;;5096696;28;20255;-77
2023/05/03 09:38:04;;;;;;;2.57;2.20;;;12.40;1.00;;;;;;5081376;28;20205;-77
2023/05/03 09:40:31;;;;;;;4.37;2.57;;;13.40;1.00;;;;;;5075338;28;20255;-78
2023/05/03 09:43:10;;;;;;;5.50;1.97;;;13.80;1.00;;;;;;5076787;28;20718;-78
2023/05/03 09:45:38;;;;;;;4.00;2.00;;;13.20;1.00;;;;;;5075377;28;20212;-78
2023/05/03 09:48:07;;;;;;;4.47;2.20;;;12.70;99.90;;;;;;5075737;28;20205;-77
2023/05/03 09:50:35;;;;;;;5.40;2.50;;;13.00;1.00;;;;;;5075400;28;20208;-77
2023/05/03 09:53:04;;;;;;;7.23;2.70;;;12.30;99.90;;;;;;5087443;28;20224;-77
2023/05/03 09:55:34;;;;;;;4.67;2.17;;;12.20;1.00;;;;;;5095135;28;20656;-78
2023/05/03 09:58:05;;;;;;;3.97;2.00;;;13.40;19.40;;;;;;5082887;28;20236;-78
2023/05/03 10:00:36;;;;;;;3.77;2.40;;;14.20;97.50;;;;;;5071053;28;20210;-77
2023/05/03 10:03:11;;;;;;;4.50;2.50;;;13.30;99.90;;;;;;5071907;28;20595;-77
2023/05/03 10:05:45;;;;;;;5.23;2.07;;;12.80;1.00;;;;;;5085754;28;20201;-78
2023/05/03 10:08:19;;;;;;;3.03;1.83;;;12.60;1.00;;;;;;5096591;28;20200;-78
2023/05/03 10:10:51;;;;;;;5.23;2.30;;;13.10;1.00;;;;;;5094797;28;20205;-77
2023/05/03 10:13:18;;;;;;;5.30;2.57;;;12.60;1.00;;;;;;5094258;28;20198;-77
2023/05/03 10:15:47;;;;;;;4.47;3.00;;;12.80;1.00;;;;;;5093908;28;20247;-78
2023/05/03 10:18:17;;;;;;;3.20;2.17;;;12.70;1.00;;;;;;5095668;28;20293;-77
2023/05/03 10:20:53;;;;;;;5.53;2.40;;;12.60;1.00;;;;;;5093850;28;20272;-77
2023/05/03 10:23:20;;;;;;;4.23;2.33;;;13.20;1.00;;;;;;5093716;28;20243;-78
2023/05/03 10:26:13;;;;;;;2.83;2.10;;;12.80;1.00;;;;;;5094368;28;20198;-78
2023/05/03 10:28:40;;;;;;;4.33;2.20;;;12.80;1.00;;;;;;5093745;28;20202;-78
2023/05/03 10:31:44;;;;;;;4.40;2.37;;;12.80;1.00;;;;;;5094045;28;20267;-78
2023/05/03 10:34:22;;;;;;;3.20;2.20;;;13.10;1.00;;;;;;5095868;28;20232;-77
2023/05/03 10:36:51;;;;;;;5.77;2.33;;;13.40;1.00;;;;;;5095244;28;20288;-78
2023/05/03 10:39:18;;;;;;;5.07;2.13;;;13.70;1.00;;;;;;5095534;28;20225;-78
2023/05/03 10:41:45;;;;;;;4.33;2.67;;;14.20;1.00;;;;;;5094745;28;20230;-77
2023/05/03 10:44:29;;;;;;;3.30;2.25;;;14.00;99.90;;;;;;5094521;28;20276;-77
2023/05/03 10:46:57;;;;;;;2.47;2.03;;;13.40;1.00;;;;;;5092754;28;20638;-78
2023/05/03 10:49:25;;;;;;;3.23;2.13;;;12.90;99.90;;;;;;5094222;28;20763;-78
2023/05/03 10:51:52;;;;;;;3.83;1.67;;;13.00;99.90;;;;;;5095448;28;20221;-78
2023/05/03 10:54:19;;;;;;;3.20;2.27;;;13.70;99.90;;;;;;5094395;28;20194;-77
2023/05/03 10:56:54;;;;;;;3.83;2.33;;;13.50;1.00;;;;;;5095355;28;20248;-78
2023/05/03 10:59:23;;;;;;;3.67;2.40;;;13.50;99.90;;;;;;5093245;28;20197;-78
2023/05/03 11:01:52;;;;;;;4.20;2.25;;;13.60;99.90;;;;;;5093694;28;20225;-78
2023/05/03 11:04:36;;;;;;;4.30;2.83;;;13.90;99.90;;;;;;5098232;28;20853;-78
2023/05/03 11:07:03;;;;;;;3.53;2.10;;;13.70;99.90;;;;;;5097926;28;20198;-78
2023/05/03 11:09:32;;;;;;;2.63;2.00;;;13.40;80.40;;;;;;5096667;28;20671;-78
2023/05/03 11:11:59;;;;;;;4.47;2.07;;;13.20;71.70;;;;;;5097660;28;20270;-78
2023/05/03 11:14:27;;;;;;;3.00;1.80;;;13.20;1.00;;;;;;5098736;28;20263;-78
2023/05/03 11:16:56;;;;;;;4.60;2.13;;;14.70;1.00;;;;;;5097975;28;20628;-78
2023/05/03 11:19:24;;;;;;;6.20;1.93;;;13.80;99.90;;;;;;5098193;28;20327;-77
2023/05/03 11:21:52;;;;;;;3.40;2.00;;;13.50;1.00;;;;;;5098212;28;20734;-77
2023/05/03 11:24:19;;;;;;;4.10;1.90;;;13.90;1.00;;;;;;5098063;28;20218;-77
2023/05/03 11:26:47;;;;;;;2.33;2.00;;;13.60;1.00;;;;;;5098355;28;20205;-77
2023/05/03 11:29:16;;;;;;;4.10;2.10;;;13.70;1.00;;;;;;5097407;28;20728;-77
2023/05/03 11:31:43;;;;;;;3.50;1.97;;;13.40;1.00;;;;;;5097487;28;20225;-77
2023/05/03 11:34:10;;;;;;;3.67;2.10;;;13.70;1.00;;;;;;5098600;28;20224;-77
2023/05/03 11:36:37;;;;;;;3.33;1.80;;;13.60;1.00;;;;;;5098655;28;20201;-77
2023/05/03 11:39:07;;;;;;;3.77;2.00;;;14.40;1.00;;;;;;5087931;28;20220;-77
2023/05/03 11:41:34;;;;;;;4.60;1.90;;;15.10;1.00;;;;;;5095446;28;20224;-77
2023/05/03 11:44:01;;;;;;;3.10;1.92;;;15.50;1.00;;;;;;5100313;28;20693;-78
2023/05/03 11:46:32;;;;;;;3.42;2.47;;;16.10;1.00;;;;;;5087447;28;20260;-77
2023/05/03 11:49:00;;;;;;;4.93;2.15;;;15.40;1.00;;;;;;5077931;28;20208;-78
2023/05/03 11:51:27;;;;;;;5.88;3.10;;;14.60;1.00;;;;;;5075356;28;20317;-77
2023/05/03 11:53:54;;;;;;;5.38;2.72;;;14.30;1.00;;;;;;5075171;28;20201;-77
2023/05/03 11:56:22;;;;;;;4.70;2.08;;;13.90;1.00;;;;;;5090724;28;20214;-78
2023/05/03 11:58:56;;;;;;;3.80;2.40;;;13.50;1.00;;;;;;5094735;28;20421;-77
2023/05/03 12:01:24;;;;;;;4.80;2.80;;;13.90;1.00;;;;;;5093116;28;20328;-78
2023/05/03 12:03:54;;;;;;;4.10;2.60;;;13.60;1.00;;;;;;5095299;28;20205;-78
2023/05/03 12:06:22;;;;;;;4.80;2.80;;;13.50;1.00;;;;;;5090396;28;20201;-77
2023/05/03 12:08:48;;;;;;;5.85;2.83;;;13.90;1.00;;;;;;5092097;28;20216;-78
2023/05/03 12:11:15;;;;;;;6.83;3.10;;;14.00;1.00;;;;;;5072810;28;20218;-78
2023/05/03 12:13:44;;;;;;;3.10;2.43;;;14.00;99.90;;;;;;5074461;28;20199;-76
2023/05/03 12:16:13;;;;;;;4.87;2.50;;;13.70;99.90;;;;;;5075424;28;20206;-77
2023/05/03 12:18:50;;;;;;;4.17;2.37;;;14.40;1.00;;;;;;5097102;28;20206;-79
2023/05/03 12:21:18;;;;;;;6.90;2.72;;;14.40;99.90;;;;;;5095473;28;20217;-78
2023/05/03 12:23:45;;;;;;;2.93;2.60;;;14.10;99.90;;;;;;5098631;28;20204;-78
2023/05/03 12:26:13;;;;;;;6.57;2.97;;;14.10;99.90;;;;;;5086993;28;20197;-78
2023/05/03 12:28:40;;;;;;;4.78;2.75;;;14.30;99.90;;;;;;5095185;28;20204;-76
2023/05/03 12:31:09;;;;;;;7.00;2.60;;;14.30;99.90;;;;;;5093009;28;20221;-77
2023/05/03 12:33:36;;;;;;;6.75;3.20;;;14.50;1.00;;;;;;5082462;28;20201;-77
2023/05/03 12:36:02;;;;;;;4.20;3.03;;;14.10;99.90;;;;;;5076071;28;20683;-77
2023/05/03 12:38:29;;;;;;;10.10;4.27;;;14.30;99.90;;;;;;5093474;28;20208;-78
2023/05/03 12:40:58;;;;;;;6.73;3.00;;;14.30;99.90;;;;;;5094047;28;20205;-78
2023/05/03 12:43:25;;;;;;;4.18;2.72;;;15.10;99.90;;;;;;5081825;28;20624;-77
2023/05/03 12:45:52;;;;;;;3.70;2.63;;;16.10;99.90;;;;;;5093730;28;20217;-77
2023/05/03 12:48:23;;;;;;;8.98;3.10;;;14.50;99.90;;;;;;5078990;28;20396;-76
2023/05/03 12:50:50;;;;;;;5.97;3.28;;;14.10;55.50;;;;;;5078645;28;20289;-76
2023/05/03 12:53:17;;;;;;;4.55;3.00;;;14.20;1.00;;;;;;5074608;28;20210;-76
2023/05/03 12:55:44;;;;;;;4.90;3.25;;;14.50;11.10;;;;;;5093412;28;20229;-77
2023/05/03 12:58:10;;;;;;;6.13;2.70;;;14.20;99.90;;;;;;5079988;28;20206;-77
2023/05/03 13:00:37;;;;;;;7.60;3.07;;;14.10;99.90;;;;;;5094647;28;20263;-77